Nea Ionia, Greece
Current Conditions -  °F | °C
As of 7:20 PM on Thursday 23 Oct 2014 (Local Time) from LGEL Reporting Station
Few Clouds Few Clouds  
Wind Chill: 63°   Ceiling: Unl
Heat Index: 63°   Visibility: 6mi
Dew Point: 39°   Wind: 15mph
Humidity: 42%   Direction: 330°NNW
Pressure: 29.71"   Gusts: NA
Location:  38.03°N, 23.75°E
Report Text: LGEL 231620Z 33013KT 9999 FEW025 17/04 Q1006
Loading
Personal Weather Stations






























Interactive Weather Map
Tropical Storm Tracking
New forecast layout! Learn more

10-Day Weather Forecast

Advertisements
Track Severe Weather on mobile